クェゼリン環礁 の空港の天気 - METARとTAF

バックホルツ陸軍飛行場 ( PKWA / KWA ) - マーシャル諸島 クェゼリン環礁
飛行場実況気象(Metar)
観測時間10/16 05:20 MHT (10/15 17:20 UTC)
風向・風速南西 3m/s
視程10km以上
天気現象
なし
気温27.8℃
湿度86%
気圧1009hPa
METARPKWA 151720Z AUTO 22006KT 10SM CLR 28/25 A2980 RMK AO2 T02780252
過去の天気等 Google飛行場航空写真 Wunderground天気予報

過去48時間のMETAR

飛行場予報(TAF)
発表時間: 10/16 05:21 MHT (10/15 17:21 UTC)
予報対象時間: 16日6時 MHT ~ 17日6時 MHT
風向・風速南西 5m/s
視程10km以上
天気現象周辺でしゅう雨
少しの雲 雲底高度 610m
全天の4割程度の雲 雲底高度 1830m
全天の8割程度の雲 雲底高度 3050m
PKWA 151721Z 1518/1618 22009KT P6SM VCSH FEW020 SCT060 BKN100